Time;durP1;ratioP1;P1;durP2;ratioP2;P2;SDS_P1;SDS_P2;PMS_P1;PMS_P2;Temp;Humidity;BMP_temperature;BMP_pressure;BME280_temperature;BME280_humidity;BME280_pressure;Samples;Min_cycle;Max_cycle;Signal;HPM_P1;HPM_P2
2022/03/28 00:01:05;;;;;;;12.90;8.77;;;5.40;99.90;;;;;;4915176;29;20103;-72
2022/03/28 00:03:37;;;;;;;16.13;8.95;;;5.40;99.90;;;;;;4915130;29;20409;-72
2022/03/28 00:06:04;;;;;;;13.35;8.43;;;5.40;99.90;;;;;;4916540;29;20044;-72
2022/03/28 00:08:37;;;;;;;12.48;8.18;;;5.40;99.90;;;;;;4915400;29;20575;-72
2022/03/28 00:11:09;;;;;;;17.92;8.75;;;5.30;99.90;;;;;;4914824;29;20044;-72
2022/03/28 00:13:40;;;;;;;13.43;8.35;;;5.30;99.90;;;;;;4915181;29;20052;-72
2022/03/28 00:16:13;;;;;;;15.02;9.02;;;5.30;99.90;;;;;;4915471;29;20720;-72
2022/03/28 00:18:40;;;;;;;14.85;8.35;;;5.30;99.90;;;;;;4899495;29;20143;-72
2022/03/28 00:21:11;;;;;;;14.50;9.70;;;5.30;99.90;;;;;;4899695;29;20047;-72
2022/03/28 00:23:44;;;;;;;15.60;8.40;;;5.20;99.90;;;;;;4915137;29;20040;-72
2022/03/28 00:26:15;;;;;;;18.05;10.15;;;5.20;99.90;;;;;;4916235;29;20044;-72
2022/03/28 00:28:47;;;;;;;19.38;9.60;;;5.10;99.90;;;;;;4914928;29;20500;-72
2022/03/28 00:31:19;;;;;;;16.83;8.60;;;5.00;99.90;;;;;;4914394;29;20536;-71
2022/03/28 00:33:51;;;;;;;14.45;8.73;;;5.00;99.90;;;;;;4914797;29;20052;-72
2022/03/28 00:36:23;;;;;;;13.10;7.90;;;5.00;99.90;;;;;;4914770;29;20581;-72
2022/03/28 00:38:55;;;;;;;15.45;8.63;;;5.00;99.90;;;;;;4899804;29;20095;-72
2022/03/28 00:41:27;;;;;;;16.05;9.45;;;5.00;99.90;;;;;;4914218;29;20072;-70
2022/03/28 00:43:59;;;;;;;15.00;9.73;;;5.00;99.90;;;;;;4899681;29;20048;-72
2022/03/28 00:46:32;;;;;;;15.85;9.25;;;5.00;99.90;;;;;;4914655;29;20055;-72
2022/03/28 00:49:04;;;;;;;16.23;9.40;;;5.00;99.90;;;;;;4915761;29;20067;-71
2022/03/28 00:51:37;;;;;;;16.40;9.13;;;4.90;99.90;;;;;;4914147;29;20079;-72
2022/03/28 00:54:09;;;;;;;16.30;8.65;;;4.90;99.90;;;;;;4914482;29;20055;-72
2022/03/28 00:56:42;;;;;;;15.98;9.20;;;5.00;99.90;;;;;;4914617;29;20122;-71
2022/03/28 00:59:15;;;;;;;13.77;8.10;;;4.90;99.90;;;;;;4914240;29;20376;-72
2022/03/28 01:01:47;;;;;;;17.63;10.33;;;4.90;99.90;;;;;;4914528;29;20107;-72
2022/03/28 01:04:19;;;;;;;15.60;9.23;;;4.90;99.90;;;;;;4913839;29;20276;-72
2022/03/28 01:06:52;;;;;;;15.13;8.73;;;4.80;99.90;;;;;;4914782;29;20058;-72
2022/03/28 01:09:24;;;;;;;17.42;10.15;;;4.70;99.90;;;;;;4898722;29;20147;-72
2022/03/28 01:11:56;;;;;;;18.90;8.88;;;4.80;99.90;;;;;;4897917;29;20062;-72
2022/03/28 01:14:28;;;;;;;16.67;8.57;;;4.70;99.90;;;;;;4913466;29;20491;-72
2022/03/28 01:19:59;;;;;;;17.27;9.65;;;4.70;99.90;;;;;;4913352;29;20040;-72
2022/03/28 01:22:31;;;;;;;18.83;9.80;;;4.60;99.90;;;;;;4912768;29;20044;-72
2022/03/28 01:25:06;;;;;;;17.33;9.30;;;4.70;99.90;;;;;;4913111;29;20067;-71
2022/03/28 01:27:39;;;;;;;23.33;10.20;;;4.60;99.90;;;;;;4898334;29;20054;-72
2022/03/28 01:30:11;;;;;;;16.27;9.18;;;4.60;99.90;;;;;;4913278;29;20112;-72
2022/03/28 01:32:43;;;;;;;21.23;10.82;;;4.60;99.90;;;;;;4912687;29;20048;-72
2022/03/28 01:35:33;;;;;;;17.10;9.43;;;4.60;99.90;;;;;;4913163;29;20040;-72
2022/03/28 01:38:07;;;;;;;20.70;10.90;;;4.50;99.90;;;;;;4913275;29;20044;-72
2022/03/28 01:40:43;;;;;;;17.33;10.48;;;4.40;99.90;;;;;;4898303;29;20063;-72
2022/03/28 01:43:15;;;;;;;17.13;10.57;;;4.30;99.90;;;;;;4912531;29;20072;-71
2022/03/28 01:45:43;;;;;;;19.70;11.15;;;4.30;99.90;;;;;;4913043;29;20937;-72
2022/03/28 01:48:16;;;;;;;19.70;11.85;;;4.30;99.90;;;;;;4914369;29;20036;-72
2022/03/28 01:50:42;;;;;;;19.05;11.43;;;4.30;99.90;;;;;;4897372;29;20264;-72
2022/03/28 01:53:14;;;;;;;20.13;12.02;;;4.30;99.90;;;;;;4912402;29;20048;-72
2022/03/28 01:55:41;;;;;;;21.02;11.85;;;4.20;99.90;;;;;;4912904;29;20144;-72
2022/03/28 01:58:13;;;;;;;13.95;9.88;;;4.20;99.90;;;;;;4912656;29;20139;-72
2022/03/28 02:00:45;;;;;;;17.58;10.68;;;4.20;99.90;;;;;;4912753;29;20044;-72
2022/03/28 02:03:16;;;;;;;15.48;9.35;;;4.10;99.90;;;;;;4897309;29;20500;-72
2022/03/28 02:05:43;;;;;;;21.42;11.45;;;4.00;99.90;;;;;;4897297;29;20048;-72
2022/03/28 02:08:15;;;;;;;18.40;10.20;;;4.10;99.90;;;;;;4916365;29;20076;-72
2022/03/28 02:10:47;;;;;;;17.33;10.18;;;4.00;99.90;;;;;;4916889;29;20048;-72
2022/03/28 02:13:18;;;;;;;17.33;10.55;;;4.00;99.90;;;;;;4916469;29;20044;-71
2022/03/28 02:15:50;;;;;;;16.52;9.82;;;3.90;99.90;;;;;;4916601;29;20503;-73
2022/03/28 02:18:22;;;;;;;15.23;8.63;;;3.90;99.90;;;;;;4901595;29;20407;-72
2022/03/28 02:20:54;;;;;;;18.55;10.13;;;3.80;99.90;;;;;;4916164;29;20048;-70
2022/03/28 02:23:27;;;;;;;13.93;8.90;;;3.80;99.90;;;;;;4901419;29;20054;-71
2022/03/28 02:25:59;;;;;;;17.20;8.45;;;3.80;99.90;;;;;;4901670;29;20496;-72
2022/03/28 02:28:30;;;;;;;17.30;9.55;;;3.70;99.90;;;;;;4901379;29;20111;-72
2022/03/28 02:31:04;;;;;;;15.85;10.15;;;3.70;99.90;;;;;;4917088;29;20044;-72
2022/03/28 02:33:36;;;;;;;17.50;10.52;;;3.70;99.90;;;;;;4916227;29;20044;-72
2022/03/28 02:36:04;;;;;;;20.58;11.50;;;3.70;99.90;;;;;;4917358;29;20060;-72
2022/03/28 02:38:36;;;;;;;18.27;11.52;;;3.70;99.90;;;;;;4901268;29;20389;-72
2022/03/28 02:41:03;;;;;;;21.23;11.25;;;3.70;99.90;;;;;;4915772;29;20107;-71
2022/03/28 02:43:34;;;;;;;22.42;11.50;;;3.60;99.90;;;;;;4916121;29;20048;-72
2022/03/28 02:46:07;;;;;;;20.48;11.32;;;3.60;99.90;;;;;;4917353;29;20081;-72
2022/03/28 02:48:39;;;;;;;21.83;13.32;;;3.60;99.90;;;;;;4917305;29;20515;-71
2022/03/28 02:51:11;;;;;;;22.48;12.55;;;3.50;99.90;;;;;;4900611;29;20059;-72
2022/03/28 02:53:38;;;;;;;21.48;13.40;;;3.50;99.90;;;;;;4915856;29;20574;-72
2022/03/28 02:56:09;;;;;;;21.85;12.38;;;3.50;99.90;;;;;;4917199;29;20112;-71
2022/03/28 02:58:41;;;;;;;25.50;13.65;;;3.50;99.90;;;;;;4915619;29;20040;-72
2022/03/28 03:01:13;;;;;;;24.15;12.80;;;3.50;99.90;;;;;;4915519;29;20048;-72
2022/03/28 03:03:45;;;;;;;23.00;13.80;;;3.40;99.90;;;;;;4915592;29;20104;-72
2022/03/28 03:06:11;;;;;;;21.75;12.13;;;3.40;99.90;;;;;;4900199;29;20044;-72
2022/03/28 03:08:43;;;;;;;20.92;11.93;;;3.30;99.90;;;;;;4915507;29;20052;-72
2022/03/28 03:11:15;;;;;;;22.00;12.32;;;3.30;99.90;;;;;;4915510;29;20107;-71
2022/03/28 03:13:48;;;;;;;21.85;10.95;;;3.20;99.90;;;;;;4915254;29;20047;-72
2022/03/28 03:16:20;;;;;;;21.27;12.40;;;3.10;99.90;;;;;;4917039;29;20052;-72
2022/03/28 03:18:52;;;;;;;18.75;11.30;;;3.10;99.90;;;;;;4915021;29;20495;-72
2022/03/28 03:21:23;;;;;;;17.55;9.63;;;3.00;99.90;;;;;;4915489;29;20147;-72
2022/03/28 03:23:55;;;;;;;18.48;11.13;;;3.00;99.90;;;;;;4915970;29;20036;-72
2022/03/28 03:26:27;;;;;;;17.13;9.75;;;2.90;99.90;;;;;;4916181;29;20078;-72
2022/03/28 03:28:59;;;;;;;15.90;9.75;;;2.90;99.90;;;;;;4916294;29;20106;-72
2022/03/28 03:31:31;;;;;;;18.60;9.82;;;2.90;99.90;;;;;;4916653;29;20044;-72
2022/03/28 03:34:03;;;;;;;18.33;9.65;;;2.80;99.90;;;;;;4900997;29;20052;-71
2022/03/28 03:36:35;;;;;;;15.20;9.60;;;2.80;99.90;;;;;;4916179;29;20067;-71
2022/03/28 03:39:07;;;;;;;14.02;8.70;;;2.80;99.90;;;;;;4900790;29;20048;-72
2022/03/28 03:41:39;;;;;;;15.75;8.68;;;2.80;99.90;;;;;;4915720;29;20395;-72
2022/03/28 03:44:09;;;;;;;16.73;9.15;;;2.80;99.90;;;;;;4916873;29;20553;-72
2022/03/28 03:46:41;;;;;;;19.50;9.57;;;2.80;99.90;;;;;;4900925;29;20044;-72
2022/03/28 03:49:13;;;;;;;18.10;9.73;;;2.80;99.90;;;;;;4900752;29;20052;-72
2022/03/28 03:51:45;;;;;;;18.65;9.50;;;2.70;99.90;;;;;;4900289;29;20047;-72
2022/03/28 03:54:17;;;;;;;18.65;8.68;;;2.70;99.90;;;;;;4915820;29;20080;-72
2022/03/28 03:56:48;;;;;;;17.40;9.95;;;2.70;99.90;;;;;;4916782;29;20051;-71
2022/03/28 03:59:20;;;;;;;18.23;9.85;;;2.70;99.90;;;;;;4916837;29;20044;-72
2022/03/28 04:01:52;;;;;;;16.90;10.27;;;2.70;99.90;;;;;;4899970;29;20048;-72
2022/03/28 04:04:18;;;;;;;18.95;9.77;;;2.70;99.90;;;;;;4913744;29;20654;-74
2022/03/28 04:06:50;;;;;;;17.70;9.30;;;2.70;99.90;;;;;;4922691;29;20044;-72
2022/03/28 04:09:22;;;;;;;19.55;10.82;;;2.60;99.90;;;;;;4927312;29;20483;-73
2022/03/28 04:11:54;;;;;;;17.90;10.73;;;2.60;99.90;;;;;;4895080;29;20058;-72
2022/03/28 04:14:25;;;;;;;21.67;11.02;;;2.50;99.90;;;;;;4923069;29;20040;-73
2022/03/28 04:16:57;;;;;;;15.63;9.55;;;2.50;99.90;;;;;;4913097;29;20040;-72
2022/03/28 04:19:29;;;;;;;17.02;10.18;;;2.50;99.90;;;;;;4896926;29;20039;-72
2022/03/28 04:22:00;;;;;;;17.20;10.77;;;2.30;99.90;;;;;;4892342;29;20048;-72
2022/03/28 04:24:27;;;;;;;19.65;9.75;;;2.30;99.90;;;;;;4914299;29;20096;-72
2022/03/28 04:26:59;;;;;;;19.25;10.35;;;2.30;99.90;;;;;;4899073;29;20048;-72
2022/03/28 04:29:31;;;;;;;19.00;10.98;;;2.30;99.90;;;;;;4913622;29;20127;-71
2022/03/28 04:32:03;;;;;;;18.92;10.38;;;2.30;99.90;;;;;;4912011;29;20056;-72
2022/03/28 04:34:29;;;;;;;18.92;9.25;;;2.40;99.90;;;;;;4932097;29;20052;-73
2022/03/28 04:36:56;;;;;;;23.30;11.50;;;2.40;99.90;;;;;;4932025;29;20142;-73
2022/03/28 04:39:28;;;;;;;30.85;13.95;;;2.30;99.90;;;;;;4931697;29;20055;-73
2022/03/28 04:41:59;;;;;;;29.27;13.23;;;2.20;99.90;;;;;;4932733;29;20122;-71
2022/03/28 04:44:31;;;;;;;28.95;11.80;;;2.20;99.90;;;;;;4931778;29;20058;-73
2022/03/28 04:46:58;;;;;;;22.55;11.10;;;2.20;99.90;;;;;;4905005;29;20139;-72
2022/03/28 04:49:30;;;;;;;21.58;11.93;;;2.20;99.90;;;;;;4915954;29;20051;-72
2022/03/28 04:52:01;;;;;;;21.02;11.32;;;2.30;99.90;;;;;;4905848;29;20040;-73
2022/03/28 04:54:36;;;;;;;25.95;12.88;;;2.20;99.90;;;;;;4897465;29;20108;-73
2022/03/28 04:57:08;;;;;;;22.10;11.95;;;2.20;99.90;;;;;;4906080;29;20094;-73
2022/03/28 04:59:39;;;;;;;21.98;12.25;;;2.20;99.90;;;;;;4928749;29;20040;-72
2022/03/28 05:02:06;;;;;;;22.10;13.90;;;2.10;99.90;;;;;;4929410;29;20044;-73
2022/03/28 05:04:38;;;;;;;26.98;15.13;;;2.10;99.90;;;;;;4913903;29;20127;-73
2022/03/28 05:07:10;;;;;;;28.55;14.02;;;2.10;99.90;;;;;;4916394;29;20530;-74
2022/03/28 05:09:41;;;;;;;20.90;12.93;;;2.10;99.90;;;;;;4931900;29;20674;-72
2022/03/28 05:12:09;;;;;;;24.58;13.02;;;2.00;99.90;;;;;;4931024;29;20058;-73
2022/03/28 05:14:35;;;;;;;22.63;12.35;;;2.00;99.90;;;;;;4931660;29;20061;-73
2022/03/28 05:17:07;;;;;;;19.55;11.40;;;1.90;99.90;;;;;;4916425;29;20569;-72
2022/03/28 05:19:34;;;;;;;26.92;13.27;;;1.80;99.90;;;;;;4931335;29;20115;-72
2022/03/28 05:22:06;;;;;;;25.35;12.13;;;1.80;99.90;;;;;;4928273;29;20056;-72
2022/03/28 05:24:37;;;;;;;21.90;10.93;;;1.80;99.90;;;;;;4915459;29;20142;-71
2022/03/28 05:27:09;;;;;;;24.80;12.10;;;1.70;99.90;;;;;;4908584;29;20054;-73
2022/03/28 05:29:42;;;;;;;23.52;12.25;;;1.80;99.90;;;;;;4931341;29;20410;-73
2022/03/28 05:32:14;;;;;;;26.50;12.57;;;1.80;99.90;;;;;;4914493;29;20083;-72
2022/03/28 05:34:46;;;;;;;20.90;11.48;;;1.80;99.90;;;;;;4930992;29;20048;-72
2022/03/28 05:37:18;;;;;;;21.45;11.60;;;1.80;99.90;;;;;;4927415;29;20134;-71
2022/03/28 05:39:50;;;;;;;25.35;11.68;;;1.80;99.90;;;;;;4915133;29;20058;-72
2022/03/28 05:42:22;;;;;;;21.38;11.02;;;1.90;99.90;;;;;;4907907;29;20051;-72
2022/03/28 05:44:54;;;;;;;19.40;10.77;;;1.90;99.90;;;;;;4928691;29;20051;-73
2022/03/28 05:47:21;;;;;;;27.67;11.80;;;2.00;99.90;;;;;;4930265;29;20474;-72
2022/03/28 05:49:52;;;;;;;19.65;10.38;;;2.00;99.90;;;;;;4925053;29;20044;-73
2022/03/28 05:52:24;;;;;;;21.92;10.32;;;2.10;99.90;;;;;;4929682;29;20043;-72
2022/03/28 05:54:51;;;;;;;18.33;10.80;;;2.10;99.90;;;;;;4914013;29;20043;-72
2022/03/28 05:57:23;;;;;;;21.33;10.32;;;2.10;99.90;;;;;;4926736;29;20054;-73
2022/03/28 05:59:55;;;;;;;19.95;10.35;;;2.20;99.90;;;;;;4925599;29;20052;-73
2022/03/28 06:02:27;;;;;;;19.33;10.07;;;2.20;99.90;;;;;;4919404;29;20035;-72
2022/03/28 06:04:58;;;;;;;19.83;10.20;;;2.30;99.90;;;;;;4925816;29;20558;-73
2022/03/28 06:07:30;;;;;;;22.23;10.32;;;2.30;99.90;;;;;;4929400;29;20051;-72
2022/03/28 06:10:04;;;;;;;29.85;11.07;;;2.30;99.90;;;;;;4914643;29;20418;-73
2022/03/28 06:12:35;;;;;;;19.30;9.88;;;2.30;99.90;;;;;;4914339;29;20055;-73
2022/03/28 06:15:07;;;;;;;22.73;11.18;;;2.40;99.90;;;;;;4930158;29;20048;-72
2022/03/28 06:17:39;;;;;;;22.85;9.52;;;2.40;99.90;;;;;;4924427;29;20052;-72
2022/03/28 06:20:12;;;;;;;17.15;10.23;;;2.50;99.90;;;;;;4930336;29;20467;-72
2022/03/28 06:22:44;;;;;;;27.67;11.07;;;2.60;99.90;;;;;;4929057;29;20063;-73
2022/03/28 06:25:11;;;;;;;22.15;10.52;;;2.60;99.90;;;;;;4931608;29;20040;-73
2022/03/28 06:27:43;;;;;;;19.33;9.73;;;2.70;99.90;;;;;;4915129;29;20134;-71
2022/03/28 06:30:11;;;;;;;19.73;11.50;;;2.70;99.90;;;;;;4929683;29;20507;-72
2022/03/28 06:32:43;;;;;;;19.50;9.68;;;2.80;99.90;;;;;;4930266;29;20138;-71
2022/03/28 06:35:15;;;;;;;23.15;12.52;;;2.90;99.90;;;;;;4915338;29;20043;-72
2022/03/28 06:37:52;;;;;;;34.40;21.30;;;2.90;99.90;;;;;;4929020;29;20569;-71
2022/03/28 06:40:24;;;;;;;39.00;23.92;;;3.00;99.90;;;;;;4914422;29;20040;-70
2022/03/28 06:42:55;;;;;;;36.88;23.70;;;3.00;99.90;;;;;;4928772;29;20047;-71
2022/03/28 06:45:27;;;;;;;32.88;19.25;;;3.10;99.90;;;;;;4929398;29;20130;-71
2022/03/28 06:47:59;;;;;;;32.50;16.80;;;3.20;99.90;;;;;;4913732;29;20051;-71
2022/03/28 06:50:31;;;;;;;33.45;17.50;;;3.20;99.90;;;;;;4924041;29;20064;-72
2022/03/28 06:53:03;;;;;;;28.63;16.95;;;3.20;99.90;;;;;;4913681;29;20043;-72
2022/03/28 06:55:35;;;;;;;43.20;14.60;;;3.30;99.90;;;;;;4934013;29;20056;-73
2022/03/28 06:58:07;;;;;;;29.60;15.48;;;3.40;99.90;;;;;;4917502;29;20598;-72
2022/03/28 07:00:39;;;;;;;30.52;15.13;;;3.40;99.90;;;;;;4933289;29;20051;-71
2022/03/28 07:03:10;;;;;;;27.67;14.02;;;3.50;99.90;;;;;;4926176;29;20055;-71
2022/03/28 07:05:42;;;;;;;26.88;14.35;;;3.60;99.90;;;;;;4932735;29;20525;-71
2022/03/28 07:08:14;;;;;;;27.52;15.15;;;3.70;99.90;;;;;;4933215;29;20521;-71
2022/03/28 07:10:46;;;;;;;28.30;15.20;;;3.80;99.90;;;;;;4934002;29;20135;-71
2022/03/28 07:13:18;;;;;;;24.45;14.02;;;4.00;99.90;;;;;;4932010;29;20048;-72
2022/03/28 07:15:49;;;;;;;31.27;14.65;;;4.10;99.90;;;;;;4923742;29;20078;-72
2022/03/28 07:18:22;;;;;;;27.90;14.25;;;4.10;99.90;;;;;;4926110;29;20048;-72
2022/03/28 07:20:54;;;;;;;25.25;15.00;;;4.20;99.90;;;;;;4931995;29;20043;-72
2022/03/28 07:23:26;;;;;;;22.00;13.30;;;4.40;99.90;;;;;;4917164;29;20054;-72
2022/03/28 07:25:57;;;;;;;23.13;13.73;;;4.50;99.90;;;;;;4933645;29;20048;-72
2022/03/28 07:28:29;;;;;;;25.95;14.30;;;4.60;99.90;;;;;;4917645;29;20047;-72
2022/03/28 07:31:01;;;;;;;26.42;15.52;;;4.70;99.90;;;;;;4931635;29;20052;-72
2022/03/28 07:33:33;;;;;;;25.52;13.68;;;4.80;99.90;;;;;;4929353;29;20051;-72
2022/03/28 07:36:06;;;;;;;29.67;15.73;;;4.90;99.90;;;;;;4933475;29;20099;-72
2022/03/28 07:38:37;;;;;;;38.20;16.20;;;5.10;99.90;;;;;;4932312;29;20155;-72
2022/03/28 07:41:09;;;;;;;27.80;13.95;;;5.20;99.90;;;;;;4926562;29;20067;-73
2022/03/28 07:43:41;;;;;;;21.88;13.65;;;5.30;99.90;;;;;;4917028;29;20071;-72
2022/03/28 07:46:14;;;;;;;27.52;14.30;;;5.50;99.90;;;;;;4929808;29;20035;-72
2022/03/28 07:48:45;;;;;;;21.50;13.90;;;5.70;99.90;;;;;;4917254;29;20059;-72
2022/03/28 07:51:17;;;;;;;24.73;15.50;;;5.80;99.90;;;;;;4911816;29;20303;-72
2022/03/28 07:53:49;;;;;;;23.98;14.38;;;6.00;99.90;;;;;;4932242;29;20463;-72
2022/03/28 07:56:21;;;;;;;23.08;14.73;;;6.20;99.90;;;;;;4916830;29;20051;-72
2022/03/28 07:58:53;;;;;;;25.87;14.10;;;6.40;99.90;;;;;;4932589;29;20130;-72
2022/03/28 08:01:25;;;;;;;22.70;13.48;;;6.60;99.90;;;;;;4932267;29;20078;-72
2022/03/28 08:03:57;;;;;;;25.95;16.35;;;6.80;99.90;;;;;;4913746;29;20112;-72
2022/03/28 08:06:30;;;;;;;25.20;14.25;;;7.00;99.90;;;;;;4932681;29;20075;-72
2022/03/28 08:09:02;;;;;;;24.48;13.65;;;7.20;99.90;;;;;;4931434;29;20048;-72
2022/03/28 08:11:33;;;;;;;23.33;14.05;;;7.40;99.90;;;;;;4915395;29;20422;-72
2022/03/28 08:14:01;;;;;;;21.88;14.38;;;7.70;99.90;;;;;;4929169;29;20044;-72
2022/03/28 08:16:28;;;;;;;19.65;13.63;;;7.90;99.90;;;;;;4931868;29;20423;-72
2022/03/28 08:19:00;;;;;;;21.50;13.10;;;8.30;99.90;;;;;;4931894;29;20066;-72
2022/03/28 08:21:32;;;;;;;23.15;13.35;;;8.70;99.90;;;;;;4932003;29;20455;-73
2022/03/28 08:24:04;;;;;;;26.08;15.00;;;9.00;99.90;;;;;;4932430;29;20039;-73
2022/03/28 08:26:36;;;;;;;19.38;13.00;;;9.50;99.90;;;;;;4917324;29;20052;-73
2022/03/28 08:29:08;;;;;;;22.65;13.80;;;9.90;99.90;;;;;;4932175;29;20052;-73
2022/03/28 08:31:40;;;;;;;21.52;12.63;;;10.20;99.90;;;;;;4932820;29;20043;-72
2022/03/28 08:34:11;;;;;;;23.08;12.82;;;10.50;99.90;;;;;;4928270;29;20139;-72
2022/03/28 08:36:43;;;;;;;21.80;14.35;;;10.70;99.90;;;;;;4927408;29;20048;-72
2022/03/28 08:39:15;;;;;;;22.95;14.63;;;10.90;99.70;;;;;;4934977;29;20090;-73
2022/03/28 08:41:48;;;;;;;26.73;14.13;;;11.00;99.20;;;;;;4933353;29;20043;-72
2022/03/28 08:44:17;;;;;;;23.90;14.27;;;11.20;98.30;;;;;;4933502;29;20110;-72
2022/03/28 08:46:52;;;;;;;24.02;15.20;;;11.30;98.00;;;;;;4935018;29;20392;-72
2022/03/28 08:49:19;;;;;;;22.52;13.25;;;11.40;97.30;;;;;;4935392;29;20099;-72
2022/03/28 08:51:54;;;;;;;19.70;13.68;;;11.60;96.40;;;;;;4933126;29;20070;-73
2022/03/28 08:54:26;;;;;;;19.83;13.70;;;11.70;96.00;;;;;;4918418;29;20059;-73
2022/03/28 08:56:58;;;;;;;23.33;14.45;;;11.90;95.90;;;;;;4933577;29;20054;-73
2022/03/28 08:59:29;;;;;;;23.65;14.40;;;12.00;95.60;;;;;;4934674;29;20054;-73
2022/03/28 09:02:01;;;;;;;23.63;14.77;;;12.10;95.70;;;;;;4932772;29;20447;-73
2022/03/28 09:04:35;;;;;;;22.33;14.15;;;12.30;94.70;;;;;;4918224;29;20095;-72
2022/03/28 09:07:07;;;;;;;23.77;14.88;;;12.40;94.20;;;;;;4933232;29;20392;-73
2022/03/28 09:09:39;;;;;;;24.92;14.88;;;12.40;93.80;;;;;;4927395;29;20054;-72
2022/03/28 09:12:12;;;;;;;24.05;14.80;;;12.50;93.20;;;;;;4930723;29;20056;-72
2022/03/28 09:14:45;;;;;;;24.95;14.85;;;12.50;93.00;;;;;;4931328;29;20138;-72
2022/03/28 09:17:19;;;;;;;22.27;14.90;;;12.70;92.90;;;;;;4930381;29;20438;-72
2022/03/28 09:19:55;;;;;;;20.30;13.38;;;12.80;93.20;;;;;;4914927;29;20067;-72
2022/03/28 09:22:29;;;;;;;22.02;15.10;;;12.90;92.80;;;;;;4931206;29;20055;-72
2022/03/28 09:25:08;;;;;;;26.95;14.68;;;13.00;92.10;;;;;;4933942;29;20354;-72
2022/03/28 09:27:44;;;;;;;20.52;14.43;;;13.20;91.80;;;;;;4917487;29;20396;-72
2022/03/28 09:30:20;;;;;;;23.35;15.73;;;13.30;92.00;;;;;;4914357;29;20946;-73
2022/03/28 09:32:54;;;;;;;22.42;14.50;;;13.40;91.80;;;;;;4913967;29;20419;-72
2022/03/28 09:35:27;;;;;;;23.88;14.30;;;13.50;91.70;;;;;;4914720;29;20059;-72
2022/03/28 09:38:06;;;;;;;25.55;15.73;;;13.60;91.80;;;;;;4908318;29;20051;-72
2022/03/28 09:40:40;;;;;;;26.73;16.00;;;13.70;91.30;;;;;;4908249;29;20054;-72
2022/03/28 09:43:23;;;;;;;24.73;13.88;;;13.90;91.00;;;;;;4912560;29;20040;-72
2022/03/28 09:45:53;;;;;;;24.95;14.35;;;14.10;91.40;;;;;;4908845;29;20130;-72
2022/03/28 09:48:27;;;;;;;26.05;14.95;;;14.20;88.80;;;;;;4909127;29;20146;-72
2022/03/28 09:51:05;;;;;;;24.95;14.43;;;14.40;88.90;;;;;;4910991;29;20515;-72
2022/03/28 09:53:39;;;;;;;21.80;14.27;;;14.50;87.60;;;;;;4897632;29;20055;-72
2022/03/28 09:56:11;;;;;;;26.00;16.17;;;14.70;85.70;;;;;;4914005;29;20406;-72
2022/03/28 09:58:59;;;;;;;33.35;15.30;;;14.70;86.90;;;;;;4897655;29;20048;-72
2022/03/28 10:01:39;;;;;;;22.98;14.73;;;14.90;85.50;;;;;;4909534;29;20041;-72
2022/03/28 10:04:11;;;;;;;22.45;15.10;;;15.10;83.50;;;;;;4908166;29;20154;-72
2022/03/28 10:06:43;;;;;;;24.30;15.38;;;15.20;82.50;;;;;;4906311;29;20436;-72
2022/03/28 10:09:15;;;;;;;27.83;15.90;;;15.30;81.30;;;;;;4912525;29;20052;-72
2022/03/28 10:11:46;;;;;;;25.23;15.27;;;15.40;79.00;;;;;;4913391;29;20048;-72
2022/03/28 10:14:18;;;;;;;26.42;14.45;;;15.50;79.20;;;;;;4913964;29;20048;-72
2022/03/28 10:16:50;;;;;;;21.52;14.30;;;15.60;78.10;;;;;;4896159;29;20068;-72
2022/03/28 10:19:23;;;;;;;24.80;14.55;;;15.70;74.50;;;;;;4909520;29;20051;-72
2022/03/28 10:21:56;;;;;;;22.33;15.23;;;15.80;76.30;;;;;;4894488;29;20050;-72
2022/03/28 10:24:30;;;;;;;27.33;15.35;;;15.90;71.90;;;;;;4908887;29;20414;-72
2022/03/28 10:27:04;;;;;;;23.55;15.23;;;16.00;73.70;;;;;;4915352;29;20041;-72
2022/03/28 10:29:38;;;;;;;25.50;15.38;;;16.10;74.40;;;;;;4920134;29;20036;-72
2022/03/28 10:32:21;;;;;;;22.65;14.30;;;16.20;73.20;;;;;;4927989;29;20095;-72
2022/03/28 10:35:00;;;;;;;25.30;14.50;;;16.40;70.10;;;;;;4931627;29;20054;-72
2022/03/28 10:37:40;;;;;;;22.88;15.80;;;16.50;68.20;;;;;;4891815;29;20426;-72
2022/03/28 10:40:12;;;;;;;25.23;14.82;;;16.50;66.40;;;;;;4912482;29;20036;-72
2022/03/28 10:42:48;;;;;;;23.25;14.18;;;16.60;61.40;;;;;;4913365;29;20412;-73
2022/03/28 10:45:21;;;;;;;30.90;16.02;;;16.60;63.20;;;;;;4918193;29;20727;-72
2022/03/28 10:47:55;;;;;;;;;;;16.60;64.70;;;;;;4909037;29;20515;-72
2022/03/28 10:50:36;;;;;;;24.38;15.35;;;16.70;63.60;;;;;;4907327;29;19932;-72
2022/03/28 10:53:12;;;;;;;23.50;14.00;;;16.80;61.30;;;;;;4917413;29;20723;-72
2022/03/28 10:55:50;;;;;;;23.35;14.25;;;16.80;60.20;;;;;;4902836;29;20044;-72
2022/03/28 10:58:24;;;;;;;22.40;13.70;;;17.00;58.30;;;;;;4906650;29;20044;-72
2022/03/28 11:01:11;;;;;;;21.70;13.13;;;17.00;56.30;;;;;;4907541;29;20044;-71
2022/03/28 11:04:02;;;;;;;21.67;14.32;;;17.00;56.20;;;;;;4920017;29;20500;-71
2022/03/28 11:07:00;;;;;;;21.95;14.05;;;17.10;59.10;;;;;;4910751;29;20041;-71
2022/03/28 11:09:41;;;;;;;24.77;14.73;;;17.40;57.50;;;;;;4914728;29;20411;-72
2022/03/28 11:12:20;;;;;;;25.48;15.23;;;17.50;56.20;;;;;;4926848;29;20043;-71
2022/03/28 11:14:52;;;;;;;21.02;14.38;;;17.50;55.70;;;;;;4929371;29;20044;-71
2022/03/28 11:17:34;;;;;;;24.17;13.15;;;17.70;55.80;;;;;;4929431;29;20048;-71
2022/03/28 11:20:12;;;;;;;19.65;12.85;;;17.70;49.50;;;;;;4935137;29;20055;-71
2022/03/28 11:22:54;;;;;;;26.65;13.25;;;17.80;49.00;;;;;;4934806;29;20048;-71
2022/03/28 11:26:03;;;;;;;19.42;12.77;;;17.90;51.10;;;;;;4910939;29;20045;-71
2022/03/28 11:28:39;;;;;;;19.13;12.35;;;17.80;50.50;;;;;;4916238;29;20047;-71
2022/03/28 11:31:14;;;;;;;19.50;13.40;;;17.90;48.90;;;;;;4933791;29;20047;-71
2022/03/28 11:33:47;;;;;;;17.13;11.68;;;18.00;48.90;;;;;;4929123;29;20066;-71
2022/03/28 11:36:22;;;;;;;20.60;11.23;;;18.00;47.40;;;;;;4891842;29;20048;-71
2022/03/28 11:38:55;;;;;;;16.77;11.02;;;18.10;45.60;;;;;;4911108;29;20084;-71
2022/03/28 11:41:27;;;;;;;;;;;18.10;45.00;;;;;;4919204;29;20050;-71
2022/03/28 11:43:59;;;;;;;17.95;12.02;;;18.10;45.80;;;;;;4920553;29;20010;-71
2022/03/28 11:46:32;;;;;;;16.23;11.00;;;18.30;44.90;;;;;;4893631;29;20064;-71
2022/03/28 11:49:09;;;;;;;25.23;16.55;;;18.40;45.30;;;;;;4910735;29;20036;-71
2022/03/28 11:51:44;;;;;;;18.58;13.10;;;18.50;46.50;;;;;;4920365;29;20044;-71
2022/03/28 11:54:18;;;;;;;18.63;11.75;;;18.50;46.20;;;;;;4915877;29;20502;-71
2022/03/28 11:59:42;;;;;;;17.23;12.05;;;18.60;46.00;;;;;;4929219;29;20039;-71
2022/03/28 12:02:13;;;;;;;20.40;13.93;;;18.60;46.60;;;;;;4912992;29;20050;-71
2022/03/28 12:04:44;;;;;;;19.35;12.75;;;18.70;47.40;;;;;;4929809;29;20048;-71
2022/03/28 12:07:16;;;;;;;21.77;13.57;;;18.80;46.70;;;;;;4931123;29;20760;-72
2022/03/28 12:09:48;;;;;;;20.63;12.68;;;18.80;46.20;;;;;;4931020;29;20510;-71
2022/03/28 12:12:19;;;;;;;25.00;13.05;;;18.80;45.90;;;;;;4932086;29;20067;-71
2022/03/28 12:14:51;;;;;;;20.25;11.50;;;18.80;45.10;;;;;;4915948;29;20410;-71
2022/03/28 12:17:30;;;;;;;17.15;11.50;;;18.90;44.50;;;;;;4930006;29;20079;-72
2022/03/28 12:20:06;;;;;;;16.83;10.88;;;18.90;42.60;;;;;;4916783;29;20054;-72
2022/03/28 12:22:46;;;;;;;18.83;11.13;;;18.90;43.60;;;;;;4930360;29;20044;-72
2022/03/28 12:25:49;;;;;;;18.02;10.25;;;19.00;41.80;;;;;;4930403;29;20513;-73
2022/03/28 12:28:23;;;;;;;14.60;10.48;;;19.00;41.60;;;;;;4931453;29;20050;-72
2022/03/28 12:30:57;;;;;;;14.07;10.45;;;19.10;40.90;;;;;;4933231;29;20057;-72
2022/03/28 12:33:34;;;;;;;20.38;11.77;;;19.10;41.40;;;;;;4933614;29;20062;-72
2022/03/28 12:36:09;;;;;;;15.93;11.38;;;19.10;42.00;;;;;;4933739;29;20082;-73
2022/03/28 12:38:44;;;;;;;17.55;11.13;;;19.20;41.80;;;;;;4933316;29;20086;-73
2022/03/28 12:41:17;;;;;;;18.52;11.15;;;19.20;40.50;;;;;;4933078;29;20039;-72
2022/03/28 12:43:51;;;;;;;16.63;11.18;;;19.20;40.70;;;;;;4933168;29;20043;-72
2022/03/28 12:46:24;;;;;;;15.20;10.18;;;19.20;41.10;;;;;;4917050;29;20399;-72
2022/03/28 12:48:57;;;;;;;22.67;11.52;;;19.30;40.30;;;;;;4933194;29;20039;-72
2022/03/28 12:51:30;;;;;;;;;;;19.40;40.90;;;;;;4932576;29;20082;-72
2022/03/28 12:54:07;;;;;;;19.80;11.82;;;19.50;40.00;;;;;;4917949;29;19923;-72
2022/03/28 12:56:44;;;;;;;18.67;12.00;;;19.50;41.00;;;;;;4933020;29;20503;-72
2022/03/28 12:59:21;;;;;;;17.65;11.60;;;19.60;40.70;;;;;;4932679;29;20047;-72
2022/03/28 13:02:08;;;;;;;20.95;11.65;;;19.60;41.60;;;;;;4932367;29;20039;-73
2022/03/28 13:04:44;;;;;;;19.73;11.73;;;19.60;41.10;;;;;;4932825;29;20054;-72
2022/03/28 13:07:21;;;;;;;16.05;11.07;;;19.60;40.70;;;;;;4932818;29;20407;-73
2022/03/28 13:10:06;;;;;;;15.40;10.88;;;19.60;40.00;;;;;;4932826;29;20173;-72